Time;durP1;ratioP1;P1;durP2;ratioP2;P2;SDS_P1;SDS_P2;PMS_P1;PMS_P2;Temp;Humidity;BMP_temperature;BMP_pressure;BME280_temperature;BME280_humidity;BME280_pressure;Samples;Min_cycle;Max_cycle;Signal;HPM_P1;HPM_P2
2023/07/25 00:01:29;;;;;;;4.93;2.50;;;20.10;99.90;;;;;;5037036;28;20241;-77
2023/07/25 00:03:56;;;;;;;2.83;2.17;;;20.10;99.90;;;;;;5037185;28;20564;-76
2023/07/25 00:06:22;;;;;;;3.73;2.80;;;20.10;99.90;;;;;;5038333;28;20184;-77
2023/07/25 00:08:48;;;;;;;2.40;2.20;;;20.10;99.90;;;;;;5020057;28;20695;-76
2023/07/25 00:11:14;;;;;;;4.87;2.50;;;20.10;99.90;;;;;;5039439;28;20193;-77
2023/07/25 00:13:40;;;;;;;3.10;2.10;;;20.20;99.90;;;;;;5044023;28;20194;-76
2023/07/25 00:16:06;;;;;;;3.90;2.30;;;20.30;99.90;;;;;;5045698;28;20181;-74
2023/07/25 00:18:31;;;;;;;3.60;2.50;;;20.40;99.90;;;;;;5045443;28;20187;-77
2023/07/25 00:20:58;;;;;;;4.13;2.70;;;20.50;99.90;;;;;;5045897;28;20177;-76
2023/07/25 00:23:25;;;;;;;4.07;2.60;;;20.50;99.90;;;;;;5043406;28;20680;-76
2023/07/25 00:25:50;;;;;;;3.07;2.23;;;20.60;99.90;;;;;;5052404;28;20223;-79
2023/07/25 00:28:16;;;;;;;2.50;2.30;;;20.70;99.90;;;;;;5044108;28;20825;-79
2023/07/25 00:30:42;;;;;;;2.37;2.17;;;20.70;99.90;;;;;;5052394;28;20192;-76
2023/07/25 00:33:08;;;;;;;4.07;2.93;;;20.70;99.90;;;;;;5056861;28;20242;-76
2023/07/25 00:35:33;;;;;;;3.90;2.03;;;20.50;99.90;;;;;;5047742;28;20212;-76
2023/07/25 00:37:59;;;;;;;2.23;2.03;;;20.40;99.90;;;;;;5049691;28;20185;-78
2023/07/25 00:40:25;;;;;;;3.43;2.27;;;20.20;99.90;;;;;;5037853;28;20169;-78
2023/07/25 00:42:55;;;;;;;3.90;2.37;;;20.00;99.90;;;;;;5019864;28;20582;-79
2023/07/25 00:45:22;;;;;;;3.73;2.37;;;20.00;99.90;;;;;;5039602;28;20311;-76
2023/07/25 00:47:50;;;;;;;5.13;2.20;;;20.00;99.90;;;;;;5049716;28;20172;-76
2023/07/25 00:50:17;;;;;;;2.60;2.20;;;20.10;99.90;;;;;;5037501;28;20261;-79
2023/07/25 00:52:43;;;;;;;2.73;2.30;;;20.20;99.90;;;;;;5037314;28;20173;-77
2023/07/25 00:55:09;;;;;;;2.53;2.33;;;20.30;99.90;;;;;;5036825;28;20255;-77
2023/07/25 00:57:35;;;;;;;2.60;2.40;;;20.40;99.90;;;;;;5019162;28;20348;-78
2023/07/25 01:00:01;;;;;;;2.50;2.30;;;20.50;99.90;;;;;;5036911;28;20248;-77
2023/07/25 01:02:26;;;;;;;2.17;1.90;;;20.50;99.90;;;;;;5037304;28;20675;-79
2023/07/25 01:04:53;;;;;;;4.40;2.40;;;20.40;99.90;;;;;;5036791;28;20578;-79
2023/07/25 01:07:19;;;;;;;4.80;2.33;;;20.20;99.90;;;;;;5036376;28;20172;-77
2023/07/25 01:09:46;;;;;;;2.20;2.00;;;20.00;99.90;;;;;;5036132;28;20219;-78
2023/07/25 01:12:12;;;;;;;2.33;2.13;;;19.90;99.90;;;;;;5036924;28;20180;-77
2023/07/25 01:14:39;;;;;;;4.47;2.30;;;19.90;99.90;;;;;;5036586;28;20172;-78
2023/07/25 01:17:10;;;;;;;3.00;2.27;;;19.90;99.90;;;;;;5036857;28;20225;-77
2023/07/25 01:19:39;;;;;;;2.27;2.00;;;19.90;99.90;;;;;;5017809;28;20184;-76
2023/07/25 01:22:06;;;;;;;2.50;2.30;;;19.90;99.90;;;;;;5035987;28;20269;-78
2023/07/25 01:24:31;;;;;;;3.20;2.37;;;19.80;99.90;;;;;;5036046;28;20210;-78
2023/07/25 01:26:57;;;;;;;4.00;2.20;;;19.80;99.90;;;;;;5036110;28;20255;-78
2023/07/25 01:29:23;;;;;;;4.20;2.23;;;19.90;99.90;;;;;;5036211;28;20251;-78
2023/07/25 01:31:49;;;;;;;2.40;2.20;;;19.90;99.90;;;;;;5035906;28;20533;-77
2023/07/25 01:34:14;;;;;;;3.13;2.27;;;19.90;99.90;;;;;;5035508;28;20230;-76
2023/07/25 01:36:40;;;;;;;2.67;2.40;;;19.80;99.90;;;;;;5035824;28;20256;-77
2023/07/25 01:39:07;;;;;;;3.63;2.40;;;19.80;99.90;;;;;;5035850;28;20180;-78
2023/07/25 01:41:33;;;;;;;2.33;2.00;;;19.70;99.90;;;;;;5017571;28;20176;-77
2023/07/25 01:43:58;;;;;;;4.40;2.63;;;19.70;99.90;;;;;;5018526;28;20187;-78
2023/07/25 01:46:24;;;;;;;2.63;2.20;;;19.70;99.90;;;;;;5035947;28;20173;-76
2023/07/25 01:48:50;;;;;;;3.23;2.40;;;19.80;99.90;;;;;;5020547;28;20207;-77
2023/07/25 01:51:18;;;;;;;2.60;2.40;;;19.80;99.90;;;;;;5018569;28;20177;-77
2023/07/25 01:53:43;;;;;;;3.50;2.10;;;19.80;99.90;;;;;;5036212;28;20179;-78
2023/07/25 01:56:09;;;;;;;4.93;2.13;;;19.80;99.90;;;;;;5018649;28;20513;-78
2023/07/25 01:58:35;;;;;;;2.83;2.10;;;19.90;99.90;;;;;;5036610;28;20181;-75
2023/07/25 02:01:00;;;;;;;3.10;2.53;;;19.80;99.90;;;;;;5040433;28;20173;-76
2023/07/25 02:03:29;;;;;;;3.73;2.57;;;19.80;99.90;;;;;;5051888;28;20254;-79
2023/07/25 02:05:55;;;;;;;2.73;2.23;;;19.80;99.90;;;;;;5042586;28;20264;-78
2023/07/25 02:08:20;;;;;;;2.70;2.50;;;19.70;99.90;;;;;;5015563;28;20184;-79
2023/07/25 02:10:46;;;;;;;3.63;2.43;;;19.80;99.90;;;;;;5055415;28;20164;-76
2023/07/25 02:13:13;;;;;;;2.50;2.30;;;19.80;99.90;;;;;;5055890;28;20173;-77
2023/07/25 02:15:39;;;;;;;2.63;2.43;;;19.80;99.90;;;;;;5051035;28;20199;-78
2023/07/25 02:18:05;;;;;;;3.97;2.43;;;19.90;99.90;;;;;;5049683;28;20682;-77
2023/07/25 02:20:32;;;;;;;2.97;2.20;;;19.80;99.90;;;;;;5043101;28;20611;-77
2023/07/25 02:22:59;;;;;;;3.10;2.50;;;19.70;99.90;;;;;;5035908;28;20204;-77
2023/07/25 02:25:28;;;;;;;3.80;2.50;;;19.70;99.90;;;;;;5018294;28;20199;-78
2023/07/25 02:27:54;;;;;;;2.70;2.40;;;19.60;99.90;;;;;;5036148;28;20173;-76
2023/07/25 02:30:21;;;;;;;3.57;2.33;;;19.60;99.90;;;;;;5036377;28;20179;-77
2023/07/25 02:32:47;;;;;;;3.90;2.70;;;19.60;99.90;;;;;;5036794;28;20200;-77
2023/07/25 02:35:15;;;;;;;2.63;2.40;;;19.60;99.90;;;;;;5035590;28;20251;-78
2023/07/25 02:37:41;;;;;;;2.60;2.37;;;19.50;99.90;;;;;;5017564;28;20180;-77
2023/07/25 02:40:07;;;;;;;3.13;2.53;;;19.50;99.90;;;;;;5017297;28;20172;-77
2023/07/25 02:42:33;;;;;;;2.73;2.17;;;19.60;99.90;;;;;;5035769;28;20238;-79
2023/07/25 02:44:59;;;;;;;3.03;2.50;;;19.60;99.90;;;;;;5037192;28;20172;-79
2023/07/25 02:47:25;;;;;;;2.73;2.50;;;19.60;99.90;;;;;;5036757;28;20185;-76
2023/07/25 02:49:50;;;;;;;4.30;2.73;;;19.60;99.90;;;;;;5036881;28;20176;-78
2023/07/25 02:52:19;;;;;;;4.43;2.40;;;19.60;99.90;;;;;;5037521;28;20703;-77
2023/07/25 02:54:45;;;;;;;2.63;2.43;;;19.70;99.90;;;;;;5036525;28;20199;-80
2023/07/25 02:57:11;;;;;;;2.80;2.30;;;19.70;99.90;;;;;;5036351;28;20172;-76
2023/07/25 02:59:37;;;;;;;2.27;2.17;;;19.80;99.90;;;;;;5002417;28;20176;-78
2023/07/25 03:02:04;;;;;;;3.00;2.13;;;19.80;99.90;;;;;;5036206;28;20216;-78
2023/07/25 03:04:30;;;;;;;2.50;2.30;;;19.70;99.90;;;;;;5036379;28;20506;-77
2023/07/25 03:06:56;;;;;;;2.77;2.57;;;19.70;99.90;;;;;;5036942;28;20187;-77
2023/07/25 03:09:21;;;;;;;3.93;2.07;;;19.70;99.90;;;;;;5036361;28;20164;-77
2023/07/25 03:11:47;;;;;;;3.67;2.60;;;19.60;99.90;;;;;;5038293;28;20173;-77
2023/07/25 03:14:13;;;;;;;3.90;2.50;;;19.60;99.90;;;;;;5037456;28;20203;-78
2023/07/25 03:16:38;;;;;;;2.70;2.50;;;19.60;99.90;;;;;;5037951;28;20187;-76
2023/07/25 03:19:04;;;;;;;2.77;2.57;;;19.70;99.90;;;;;;5029752;28;20200;-77
2023/07/25 03:21:30;;;;;;;4.40;2.43;;;19.70;99.90;;;;;;5047763;28;20640;-78
2023/07/25 03:23:56;;;;;;;3.73;2.50;;;19.70;99.90;;;;;;5036431;28;20187;-77
2023/07/25 03:26:21;;;;;;;2.93;2.20;;;19.80;99.90;;;;;;5019306;28;20211;-78
2023/07/25 03:28:47;;;;;;;4.10;2.50;;;19.80;99.90;;;;;;5039262;28;20172;-75
2023/07/25 03:31:13;;;;;;;5.73;3.00;;;19.80;99.90;;;;;;5039537;28;20173;-76
2023/07/25 03:33:39;;;;;;;2.73;2.30;;;19.80;99.90;;;;;;5043890;28;20173;-78
2023/07/25 03:36:07;;;;;;;3.37;2.87;;;19.80;99.90;;;;;;5035769;28;20245;-78
2023/07/25 03:38:33;;;;;;;2.53;2.23;;;19.80;99.90;;;;;;5050934;28;20536;-78
2023/07/25 03:40:59;;;;;;;2.33;2.17;;;19.80;99.90;;;;;;5037933;28;20582;-79
2023/07/25 03:43:24;;;;;;;4.30;2.47;;;19.70;99.90;;;;;;5035752;28;20212;-77
2023/07/25 03:45:50;;;;;;;2.97;2.27;;;19.70;99.90;;;;;;5036648;28;20187;-76
2023/07/25 03:48:16;;;;;;;3.03;2.80;;;19.60;99.90;;;;;;5046044;28;20195;-75
2023/07/25 03:50:41;;;;;;;2.53;2.33;;;19.60;99.90;;;;;;5049081;28;20218;-77
2023/07/25 03:53:07;;;;;;;4.17;2.97;;;19.70;99.90;;;;;;5046569;28;20180;-78
2023/07/25 03:55:33;;;;;;;3.53;2.50;;;19.70;99.90;;;;;;5043251;28;20183;-78
2023/07/25 03:57:59;;;;;;;2.67;2.43;;;19.80;99.90;;;;;;5039681;28;20194;-76
2023/07/25 04:00:24;;;;;;;3.17;2.83;;;19.80;99.90;;;;;;5037311;28;20248;-77
2023/07/25 04:02:50;;;;;;;2.97;2.67;;;19.90;99.90;;;;;;5036930;28;20208;-77
2023/07/25 04:05:16;;;;;;;4.77;2.70;;;20.00;99.90;;;;;;5036270;28;20172;-77
2023/07/25 04:07:42;;;;;;;3.17;2.80;;;20.00;99.90;;;;;;5036811;28;20327;-77
2023/07/25 04:10:08;;;;;;;2.93;2.73;;;20.00;99.90;;;;;;5037296;28;20605;-77
2023/07/25 04:12:34;;;;;;;5.13;2.80;;;20.10;99.90;;;;;;5036801;28;20188;-78
2023/07/25 04:14:59;;;;;;;4.63;2.90;;;20.20;99.90;;;;;;5037972;28;20176;-77
2023/07/25 04:17:25;;;;;;;3.23;2.40;;;20.20;99.90;;;;;;5018434;28;20177;-78
2023/07/25 04:19:51;;;;;;;3.27;2.97;;;20.20;99.90;;;;;;5019890;28;20223;-78
2023/07/25 04:22:18;;;;;;;4.90;2.80;;;20.10;99.90;;;;;;5036860;28;20679;-77
2023/07/25 04:24:43;;;;;;;3.60;2.77;;;20.10;99.90;;;;;;5019550;28;20187;-76
2023/07/25 04:27:10;;;;;;;3.03;2.83;;;20.20;99.90;;;;;;5036338;28;20180;-76
2023/07/25 04:29:37;;;;;;;5.10;3.33;;;20.20;99.90;;;;;;5018540;28;20181;-77
2023/07/25 04:32:04;;;;;;;5.47;3.43;;;20.20;99.90;;;;;;5043546;28;20217;-75
2023/07/25 04:34:29;;;;;;;4.97;3.13;;;20.30;99.90;;;;;;5015804;28;20307;-78
2023/07/25 04:36:55;;;;;;;4.50;2.90;;;20.30;99.90;;;;;;5022867;28;20591;-77
2023/07/25 04:39:22;;;;;;;3.40;3.10;;;20.40;99.90;;;;;;5023418;28;20169;-77
2023/07/25 04:41:48;;;;;;;2.90;2.60;;;20.50;99.90;;;;;;5023660;28;20275;-75
2023/07/25 04:44:14;;;;;;;3.53;3.20;;;20.50;99.90;;;;;;5022300;28;20595;-78
2023/07/25 04:46:40;;;;;;;6.93;2.77;;;20.70;99.90;;;;;;5005789;28;20640;-76
2023/07/25 04:49:06;;;;;;;3.17;2.83;;;20.80;99.90;;;;;;5024111;28;20184;-77
2023/07/25 04:51:32;;;;;;;6.70;2.90;;;20.80;99.90;;;;;;5022192;28;20319;-78
2023/07/25 04:53:58;;;;;;;3.20;2.90;;;20.80;99.90;;;;;;5024063;28;20228;-76
2023/07/25 04:56:24;;;;;;;4.27;2.90;;;20.80;99.90;;;;;;5026870;28;20189;-78
2023/07/25 04:58:49;;;;;;;3.13;2.83;;;20.80;99.90;;;;;;5023557;28;20181;-77
2023/07/25 05:01:15;;;;;;;2.70;2.50;;;20.70;99.90;;;;;;5025284;28;20580;-78
2023/07/25 05:03:41;;;;;;;2.80;2.60;;;20.70;99.90;;;;;;5036188;28;20205;-75
2023/07/25 05:06:07;;;;;;;2.90;2.70;;;20.70;99.90;;;;;;5019587;28;20181;-75
2023/07/25 05:08:32;;;;;;;4.37;2.67;;;20.60;99.90;;;;;;5028503;28;20264;-76
2023/07/25 05:11:01;;;;;;;5.77;3.27;;;20.50;99.90;;;;;;5021809;28;20220;-76
2023/07/25 05:13:27;;;;;;;7.33;2.80;;;20.50;99.90;;;;;;5021073;28;20174;-77
2023/07/25 05:15:55;;;;;;;3.80;2.77;;;20.50;99.90;;;;;;5010777;28;20170;-75
2023/07/25 05:18:20;;;;;;;3.03;2.77;;;20.40;99.90;;;;;;5029829;28;20184;-77
2023/07/25 05:20:46;;;;;;;4.73;2.93;;;20.30;99.90;;;;;;5027498;28;20169;-78
2023/07/25 05:23:12;;;;;;;3.57;2.50;;;20.30;99.90;;;;;;5033577;28;20213;-76
2023/07/25 05:25:38;;;;;;;3.10;2.60;;;20.20;99.90;;;;;;5027055;28;20178;-77
2023/07/25 05:28:04;;;;;;;5.20;2.73;;;20.20;99.90;;;;;;5012471;28;20197;-75
2023/07/25 05:30:31;;;;;;;5.60;3.10;;;20.20;99.90;;;;;;4995156;28;20196;-77
2023/07/25 05:32:57;;;;;;;3.20;2.90;;;20.10;99.90;;;;;;5034487;28;20177;-76
2023/07/25 05:35:23;;;;;;;2.97;2.63;;;20.10;99.90;;;;;;5052633;28;20250;-79
2023/07/25 05:37:48;;;;;;;5.53;3.07;;;20.20;99.90;;;;;;5041519;28;20184;-79
2023/07/25 05:40:14;;;;;;;2.80;2.60;;;20.20;99.90;;;;;;5041534;28;20169;-77
2023/07/25 05:42:40;;;;;;;3.50;2.90;;;20.00;99.90;;;;;;5042303;28;20207;-75
2023/07/25 05:45:06;;;;;;;3.03;2.80;;;19.90;99.90;;;;;;5050362;28;20173;-76
2023/07/25 05:47:32;;;;;;;5.73;3.70;;;19.90;99.90;;;;;;5024019;28;20184;-77
2023/07/25 05:49:58;;;;;;;5.13;2.40;;;19.90;99.90;;;;;;5042174;28;20179;-77
2023/07/25 05:52:31;;;;;;;3.97;2.90;;;20.00;99.90;;;;;;5043815;28;20184;-80
2023/07/25 05:54:58;;;;;;;2.97;2.37;;;20.00;99.90;;;;;;5042197;28;20173;-78
2023/07/25 05:57:25;;;;;;;6.17;2.70;;;20.00;99.90;;;;;;5024746;28;20200;-78
2023/07/25 05:59:50;;;;;;;3.80;2.97;;;19.80;99.90;;;;;;5008488;28;20190;-78
2023/07/25 06:02:16;;;;;;;6.27;3.10;;;19.80;99.90;;;;;;5024465;28;20204;-75
2023/07/25 06:04:45;;;;;;;4.60;3.00;;;19.60;99.90;;;;;;5044651;28;20181;-77
2023/07/25 06:07:13;;;;;;;4.00;3.07;;;19.60;99.90;;;;;;5040001;28;20168;-77
2023/07/25 06:09:40;;;;;;;4.70;3.17;;;19.60;99.90;;;;;;5022306;28;20838;-76
2023/07/25 06:12:08;;;;;;;3.20;2.90;;;19.50;99.90;;;;;;5020179;28;20180;-77
2023/07/25 06:14:34;;;;;;;3.50;3.20;;;19.50;99.90;;;;;;5037472;28;20585;-74
2023/07/25 06:16:59;;;;;;;3.63;2.63;;;19.40;99.90;;;;;;5040774;28;20172;-76
2023/07/25 06:19:25;;;;;;;3.20;2.90;;;19.40;99.90;;;;;;5043744;28;20250;-76
2023/07/25 06:21:51;;;;;;;3.37;2.80;;;19.50;99.90;;;;;;5037619;28;20283;-79
2023/07/25 06:24:17;;;;;;;5.17;3.07;;;19.50;99.90;;;;;;5035633;28;20252;-77
2023/07/25 06:26:43;;;;;;;4.60;3.67;;;19.60;99.90;;;;;;5036966;28;20207;-76
2023/07/25 06:29:10;;;;;;;4.27;3.00;;;19.70;99.90;;;;;;5036848;28;20200;-76
2023/07/25 06:31:36;;;;;;;4.93;3.40;;;19.70;99.90;;;;;;5036025;28;20213;-77
2023/07/25 06:34:02;;;;;;;4.13;3.20;;;19.70;99.90;;;;;;5036345;28;20224;-74
2023/07/25 06:36:28;;;;;;;3.80;3.03;;;19.70;99.90;;;;;;5037804;28;20252;-78
2023/07/25 06:38:53;;;;;;;5.10;3.03;;;19.70;99.90;;;;;;5024579;28;20184;-79
2023/07/25 06:41:20;;;;;;;4.03;3.03;;;19.60;99.90;;;;;;5020885;28;20227;-77
2023/07/25 06:43:46;;;;;;;5.73;3.30;;;19.40;99.90;;;;;;5036276;28;20208;-76
2023/07/25 06:46:12;;;;;;;5.03;3.40;;;19.40;99.90;;;;;;5035999;28;20506;-75
2023/07/25 06:48:37;;;;;;;5.80;3.17;;;19.30;99.90;;;;;;5037055;28;20176;-77
2023/07/25 06:51:03;;;;;;;5.07;3.50;;;19.30;99.90;;;;;;5036333;28;20187;-78
2023/07/25 06:53:29;;;;;;;3.00;2.80;;;19.30;99.90;;;;;;5024178;28;20181;-77
2023/07/25 06:55:55;;;;;;;4.40;2.87;;;19.10;99.90;;;;;;5045403;28;20195;-76
2023/07/25 06:58:20;;;;;;;6.77;3.40;;;18.80;99.90;;;;;;5036758;28;20518;-76
2023/07/25 07:00:46;;;;;;;3.53;2.83;;;18.70;99.90;;;;;;5036491;28;20621;-77
2023/07/25 07:03:13;;;;;;;6.10;3.03;;;18.90;99.90;;;;;;5035692;28;20226;-77
2023/07/25 07:05:39;;;;;;;4.77;2.73;;;18.90;99.90;;;;;;5049830;28;20160;-76
2023/07/25 07:08:05;;;;;;;4.13;3.07;;;19.00;99.90;;;;;;5041524;28;20566;-78
2023/07/25 07:10:32;;;;;;;4.47;2.80;;;19.00;99.90;;;;;;5019588;28;20176;-77
2023/07/25 07:12:59;;;;;;;3.03;2.70;;;18.90;99.90;;;;;;5052308;28;20214;-75
2023/07/25 07:15:24;;;;;;;3.33;2.77;;;18.90;99.90;;;;;;5035593;28;20180;-78
2023/07/25 07:17:53;;;;;;;2.83;2.63;;;19.10;99.90;;;;;;5036234;28;20180;-76
2023/07/25 07:20:19;;;;;;;2.80;2.60;;;19.00;99.90;;;;;;5040557;28;20180;-79
2023/07/25 07:22:45;;;;;;;4.60;2.93;;;19.00;99.90;;;;;;5038473;28;20283;-77
2023/07/25 07:25:11;;;;;;;3.57;2.87;;;19.00;99.90;;;;;;5036972;28;20188;-77
2023/07/25 07:27:37;;;;;;;3.80;3.20;;;19.00;99.90;;;;;;5036570;28;20257;-76
2023/07/25 07:30:03;;;;;;;3.60;2.80;;;19.00;99.90;;;;;;5036593;28;20173;-78
2023/07/25 07:32:29;;;;;;;4.03;3.20;;;18.90;99.90;;;;;;5036148;28;20181;-77
2023/07/25 07:34:55;;;;;;;4.93;3.07;;;18.90;99.90;;;;;;5035221;28;20684;-77
2023/07/25 07:37:20;;;;;;;6.13;3.33;;;18.80;99.90;;;;;;5036139;28;20183;-77
2023/07/25 07:39:46;;;;;;;6.17;3.50;;;18.90;99.90;;;;;;5041844;28;20149;-74
2023/07/25 07:42:12;;;;;;;6.17;3.50;;;19.00;99.90;;;;;;5022881;28;20215;-79
2023/07/25 07:44:38;;;;;;;6.60;3.50;;;19.00;99.90;;;;;;5035623;28;20173;-77
2023/07/25 07:47:04;;;;;;;3.97;3.40;;;18.90;99.90;;;;;;5017614;28;20707;-76
2023/07/25 07:49:33;;;;;;;4.30;3.07;;;18.90;99.90;;;;;;5035189;28;20603;-76
2023/07/25 07:51:58;;;;;;;4.90;3.43;;;18.80;99.90;;;;;;5035892;28;20172;-78
2023/07/25 07:54:25;;;;;;;3.23;2.87;;;18.60;99.90;;;;;;5035797;28;20505;-79
2023/07/25 07:56:51;;;;;;;2.97;2.77;;;18.50;99.90;;;;;;5036492;28;20172;-77
2023/07/25 07:59:17;;;;;;;2.77;2.50;;;18.40;99.90;;;;;;5018695;28;20223;-77
2023/07/25 08:01:42;;;;;;;3.60;3.30;;;18.40;99.90;;;;;;5017618;28;20522;-79
2023/07/25 08:04:08;;;;;;;5.60;2.70;;;18.50;99.90;;;;;;5018711;28;20725;-77
2023/07/25 08:06:34;;;;;;;2.80;2.60;;;18.60;99.90;;;;;;5038794;28;20168;-75
2023/07/25 08:09:00;;;;;;;3.50;3.20;;;18.70;99.90;;;;;;5039308;28;20176;-76
2023/07/25 08:11:25;;;;;;;4.03;3.40;;;18.60;99.90;;;;;;5040664;28;20212;-75
2023/07/25 08:13:51;;;;;;;4.23;3.17;;;18.60;99.90;;;;;;5022885;28;20532;-77
2023/07/25 08:16:17;;;;;;;3.27;3.07;;;18.60;99.90;;;;;;5039493;28;20172;-77
2023/07/25 08:18:42;;;;;;;6.60;3.37;;;18.60;99.90;;;;;;5039368;28;20184;-76
2023/07/25 08:21:08;;;;;;;3.20;2.90;;;18.70;99.90;;;;;;5038562;28;20203;-76
2023/07/25 08:23:36;;;;;;;4.43;3.27;;;18.90;99.90;;;;;;5043096;28;20572;-76
2023/07/25 08:26:02;;;;;;;3.30;3.10;;;19.10;99.90;;;;;;5044602;28;20191;-78
2023/07/25 08:28:29;;;;;;;3.43;3.03;;;19.40;99.90;;;;;;5043585;28;20177;-77
2023/07/25 08:31:02;;;;;;;3.20;2.90;;;19.60;99.90;;;;;;5027040;28;20177;-75
2023/07/25 08:33:31;;;;;;;4.13;3.20;;;19.70;99.90;;;;;;5048118;28;20164;-77
2023/07/25 08:35:57;;;;;;;4.43;3.40;;;20.00;99.90;;;;;;5043498;28;20184;-76
2023/07/25 08:38:23;;;;;;;4.33;3.93;;;20.20;99.90;;;;;;5041394;28;20861;-76
2023/07/25 08:41:04;;;;;;;3.77;3.47;;;20.40;99.90;;;;;;5040826;28;20168;-77
2023/07/25 08:43:35;;;;;;;3.17;2.87;;;20.50;99.90;;;;;;5029335;28;20200;-77
2023/07/25 08:46:08;;;;;;;3.30;3.10;;;20.50;99.90;;;;;;5038143;28;20157;-75
2023/07/25 08:48:38;;;;;;;3.40;3.10;;;20.50;99.90;;;;;;5038080;28;20165;-76
2023/07/25 08:51:20;;;;;;;3.50;3.20;;;20.60;99.90;;;;;;5044327;28;20175;-75
2023/07/25 08:54:10;;;;;;;3.40;3.17;;;20.60;99.90;;;;;;5053771;28;20227;-76
2023/07/25 08:56:38;;;;;;;3.13;2.93;;;20.80;99.90;;;;;;5040458;28;20620;-77
2023/07/25 08:59:05;;;;;;;4.00;2.90;;;20.80;99.90;;;;;;5040135;28;20169;-77
2023/07/25 09:01:31;;;;;;;3.47;2.90;;;21.00;99.90;;;;;;5038316;28;20204;-78
2023/07/25 09:04:00;;;;;;;3.10;2.90;;;21.40;99.90;;;;;;5038653;28;20189;-75
2023/07/25 09:06:27;;;;;;;3.00;2.80;;;21.50;99.90;;;;;;5020528;28;20513;-76
2023/07/25 09:08:53;;;;;;;4.43;3.20;;;21.70;99.90;;;;;;5037626;28;20223;-78
2023/07/25 09:11:22;;;;;;;3.33;3.03;;;21.80;99.90;;;;;;5038320;28;20259;-78
2023/07/25 09:13:49;;;;;;;3.40;3.10;;;22.00;99.90;;;;;;5038739;28;20536;-76
2023/07/25 09:16:15;;;;;;;3.30;2.90;;;21.90;99.90;;;;;;5020809;28;20176;-77
2023/07/25 09:18:41;;;;;;;4.07;3.23;;;21.80;99.90;;;;;;5020400;28;20176;-78
2023/07/25 09:21:08;;;;;;;3.57;3.20;;;21.70;99.90;;;;;;5038228;28;20179;-74
2023/07/25 09:23:34;;;;;;;3.00;2.80;;;21.60;99.90;;;;;;5037525;28;20668;-78
2023/07/25 09:26:10;;;;;;;3.27;3.07;;;21.40;99.90;;;;;;5037761;28;20206;-77
2023/07/25 09:28:47;;;;;;;3.40;3.10;;;21.30;99.90;;;;;;5037286;28;20172;-77
2023/07/25 09:31:12;;;;;;;5.37;3.50;;;21.30;99.90;;;;;;5037857;28;20188;-76
2023/07/25 09:33:39;;;;;;;3.10;2.90;;;21.20;99.90;;;;;;5037921;28;20261;-78
2023/07/25 09:36:05;;;;;;;4.37;3.33;;;21.10;99.90;;;;;;5038834;28;20160;-79
2023/07/25 09:38:33;;;;;;;4.93;3.60;;;21.00;99.90;;;;;;5037926;28;20172;-77
2023/07/25 09:41:01;;;;;;;4.87;3.63;;;20.90;99.90;;;;;;5019466;28;20181;-77
2023/07/25 09:43:28;;;;;;;4.03;3.67;;;20.80;99.90;;;;;;5037712;28;20212;-77
2023/07/25 09:45:55;;;;;;;4.10;3.80;;;20.90;99.90;;;;;;5037732;28;20207;-76
2023/07/25 09:48:21;;;;;;;4.07;3.70;;;20.90;99.90;;;;;;5036979;28;20527;-77
2023/07/25 09:50:48;;;;;;;6.43;4.10;;;20.80;99.90;;;;;;5037967;28;20196;-78
2023/07/25 09:53:17;;;;;;;4.70;3.50;;;20.70;99.90;;;;;;5037913;28;20187;-77
2023/07/25 09:55:44;;;;;;;4.10;3.80;;;20.60;99.90;;;;;;5019429;28;20264;-77
2023/07/25 09:58:11;;;;;;;4.73;3.93;;;20.50;99.90;;;;;;5037515;28;20183;-79
2023/07/25 10:00:37;;;;;;;4.10;3.80;;;20.50;99.90;;;;;;5019810;28;20674;-76
2023/07/25 10:03:03;;;;;;;4.30;3.90;;;20.50;99.90;;;;;;5036958;28;20197;-76
2023/07/25 10:05:29;;;;;;;3.90;3.60;;;20.40;99.90;;;;;;5019332;28;20181;-76
2023/07/25 10:08:00;;;;;;;3.60;3.30;;;20.40;99.90;;;;;;5036586;28;20172;-76
2023/07/25 10:10:26;;;;;;;3.67;3.47;;;20.40;99.90;;;;;;5037634;28;20632;-78
2023/07/25 10:12:53;;;;;;;3.60;3.30;;;20.40;99.90;;;;;;5036902;28;20169;-78
2023/07/25 10:15:20;;;;;;;3.90;3.60;;;20.30;99.90;;;;;;5037248;28;20169;-78
2023/07/25 10:17:46;;;;;;;3.60;3.30;;;20.30;99.90;;;;;;5044129;28;20173;-76
2023/07/25 10:20:32;;;;;;;3.80;3.40;;;20.20;99.90;;;;;;5054340;28;20250;-76
2023/07/25 10:23:09;;;;;;;3.60;3.33;;;20.20;99.90;;;;;;5040034;28;20225;-76
2023/07/25 10:25:35;;;;;;;4.63;3.20;;;20.10;99.90;;;;;;5038172;28;20180;-76
2023/07/25 10:28:05;;;;;;;3.80;3.50;;;20.10;99.90;;;;;;5035057;28;20259;-75
2023/07/25 10:30:39;;;;;;;3.40;3.20;;;20.10;99.90;;;;;;5037076;28;20168;-77
2023/07/25 10:33:07;;;;;;;3.40;3.13;;;20.10;99.90;;;;;;5037095;28;20654;-77
2023/07/25 10:35:53;;;;;;;3.57;3.30;;;20.00;99.90;;;;;;5050107;28;20224;-79
2023/07/25 10:38:33;;;;;;;4.23;3.40;;;20.10;99.90;;;;;;5040786;28;20218;-78
2023/07/25 10:41:09;;;;;;;3.33;3.13;;;20.20;99.90;;;;;;5037362;28;20165;-77
2023/07/25 10:46:17;;;;;;;3.43;3.23;;;20.40;99.90;;;;;;5036342;28;20173;-79
2023/07/25 10:48:51;;;;;;;3.10;2.80;;;20.40;99.90;;;;;;5036073;28;20176;-78
2023/07/25 10:51:18;;;;;;;4.70;3.17;;;20.50;99.90;;;;;;5035819;28;20218;-79
2023/07/25 10:54:10;;;;;;;3.60;3.30;;;20.60;99.90;;;;;;5035483;28;20180;-78
2023/07/25 10:56:37;;;;;;;3.20;3.00;;;20.70;99.90;;;;;;5035443;28;20179;-77
2023/07/25 10:59:10;;;;;;;3.97;3.40;;;20.90;99.90;;;;;;5035555;28;20202;-78
2023/07/25 11:01:39;;;;;;;3.40;3.10;;;21.10;99.90;;;;;;5036098;28;20655;-78
2023/07/25 11:04:25;;;;;;;3.60;3.07;;;21.20;99.90;;;;;;5035123;28;20216;-77
2023/07/25 11:06:53;;;;;;;3.43;2.87;;;21.40;99.90;;;;;;5035475;28;20177;-77
2023/07/25 11:09:20;;;;;;;3.30;3.10;;;21.40;99.90;;;;;;5033820;28;20196;-78
2023/07/25 11:11:48;;;;;;;3.97;3.50;;;21.40;99.90;;;;;;5035093;28;20177;-78
2023/07/25 11:14:15;;;;;;;3.17;2.97;;;21.60;99.90;;;;;;5034230;28;20192;-77
2023/07/25 11:16:42;;;;;;;3.40;3.20;;;21.90;99.90;;;;;;5035320;28;20164;-78
2023/07/25 11:19:14;;;;;;;3.67;3.33;;;22.10;99.90;;;;;;5018720;28;20181;-77
2023/07/25 11:21:42;;;;;;;2.90;2.70;;;22.40;99.90;;;;;;5035968;28;20647;-77
2023/07/25 11:24:09;;;;;;;2.73;2.53;;;22.60;99.90;;;;;;5039963;28;20544;-79
2023/07/25 11:26:37;;;;;;;2.90;2.70;;;22.70;99.90;;;;;;5040587;28;20491;-76
2023/07/25 11:29:08;;;;;;;2.97;2.77;;;22.90;99.90;;;;;;5037488;28;20203;-77
2023/07/25 11:31:36;;;;;;;2.83;2.63;;;23.10;99.90;;;;;;5034772;28;20188;-77
2023/07/25 11:34:12;;;;;;;2.90;2.70;;;23.10;99.90;;;;;;5035101;28;20234;-79
2023/07/25 11:36:39;;;;;;;2.70;2.50;;;23.10;99.90;;;;;;5035531;28;20601;-79
2023/07/25 11:39:06;;;;;;;3.33;2.90;;;22.80;99.90;;;;;;5034412;28;20223;-75
2023/07/25 11:41:33;;;;;;;3.03;2.83;;;22.40;99.90;;;;;;5033987;28;20199;-79
2023/07/25 11:43:59;;;;;;;3.67;3.43;;;21.90;99.90;;;;;;5035264;28;20267;-77
2023/07/25 11:46:26;;;;;;;3.27;2.97;;;21.60;99.90;;;;;;5023007;28;20216;-78
2023/07/25 11:48:53;;;;;;;4.80;2.70;;;21.40;99.90;;;;;;5038887;28;20179;-78
2023/07/25 11:51:19;;;;;;;3.17;2.97;;;21.30;99.90;;;;;;5035352;28;20670;-80
2023/07/25 11:53:48;;;;;;;2.87;2.67;;;21.30;99.90;;;;;;5038246;28;20172;-76
2023/07/25 11:56:14;;;;;;;3.23;2.87;;;21.30;99.90;;;;;;5050922;28;20184;-78
2023/07/25 11:58:50;;;;;;;3.27;3.00;;;21.30;99.90;;;;;;5035253;28;20203;-79
2023/07/25 12:01:17;;;;;;;2.70;2.50;;;21.20;99.90;;;;;;5034678;28;20149;-78
2023/07/25 12:03:47;;;;;;;3.03;2.83;;;21.20;99.90;;;;;;5035171;28;20270;-74
2023/07/25 12:06:13;;;;;;;2.80;2.60;;;21.20;99.90;;;;;;5036696;28;20195;-78
2023/07/25 12:08:45;;;;;;;3.23;3.03;;;21.00;99.90;;;;;;5016965;28;20199;-78
2023/07/25 12:11:15;;;;;;;2.97;2.77;;;20.90;99.90;;;;;;5050318;28;20176;-75
2023/07/25 12:13:51;;;;;;;3.43;3.00;;;20.80;99.90;;;;;;5043864;28;20173;-76
2023/07/25 12:16:37;;;;;;;3.67;3.27;;;20.80;99.90;;;;;;5035735;28;20179;-76
2023/07/25 12:19:07;;;;;;;3.53;3.00;;;20.70;99.90;;;;;;5035556;28;20161;-78
2023/07/25 12:21:34;;;;;;;3.20;3.00;;;20.60;99.90;;;;;;5034610;28;20227;-76
2023/07/25 12:24:03;;;;;;;2.53;2.33;;;20.60;99.90;;;;;;5035745;28;20208;-77
2023/07/25 12:26:38;;;;;;;4.17;2.30;;;20.50;99.90;;;;;;5036632;28;20168;-77
2023/07/25 12:29:12;;;;;;;3.07;2.40;;;20.50;99.90;;;;;;5035011;28;20164;-77
2023/07/25 12:31:39;;;;;;;2.43;2.33;;;20.50;99.90;;;;;;5000697;28;20564;-76
2023/07/25 12:34:05;;;;;;;2.70;2.50;;;20.40;99.90;;;;;;5034088;28;20575;-77
2023/07/25 12:36:31;;;;;;;3.13;2.37;;;20.40;99.90;;;;;;5019026;28;20172;-77
2023/07/25 12:38:57;;;;;;;2.10;2.00;;;20.30;99.90;;;;;;5036418;28;20169;-77
2023/07/25 12:41:24;;;;;;;2.53;2.33;;;20.40;99.90;;;;;;5034009;28;20172;-77
2023/07/25 12:43:49;;;;;;;1.90;1.80;;;20.40;99.90;;;;;;5031988;28;20200;-79
2023/07/25 12:46:15;;;;;;;2.37;2.17;;;20.50;99.90;;;;;;5016432;28;20222;-76
2023/07/25 12:48:41;;;;;;;1.93;1.83;;;20.60;99.90;;;;;;5032784;28;20181;-75
2023/07/25 12:51:07;;;;;;;1.80;1.70;;;20.60;99.90;;;;;;5017212;28;20664;-77